Time;durP1;ratioP1;P1;durP2;ratioP2;P2;SDS_P1;SDS_P2;PMS_P1;PMS_P2;Temp;Humidity;BMP_temperature;BMP_pressure;BME280_temperature;BME280_humidity;BME280_pressure;Samples;Min_cycle;Max_cycle;Signal;HPM_P1;HPM_P2
2023/03/03 00:00:05;;;;;;;;;;;;;;;;;;1875634;28;7043;-64
2023/03/03 00:01:04;;;;;;;;;;;;;;;;;;1871140;28;7019;-63
2023/03/03 00:02:02;;;;;;;;;;;;;;;;;;1869674;28;8192;-64
2023/03/03 00:03:04;;;;;;;;;;;;;;;;;;1869487;28;7332;-64
2023/03/03 00:04:01;;;;;;;;;;;;;;;;;;1872351;28;7006;-63
2023/03/03 00:04:59;;;;;;;;;;;;;;;;;;1874870;28;8011;-67
2023/03/03 00:05:57;;;;;;;;;;;;;;;;;;1873596;28;7010;-66
2023/03/03 00:06:54;;;;;;;;;;;;;;;;;;1869211;28;8037;-66
2023/03/03 00:07:52;;;;;;;;;;;;;;;;;;1868266;29;7978;-64
2023/03/03 00:08:49;;;;;;;;;;;;;;;;;;1874683;28;7014;-64
2023/03/03 00:09:46;;;;;;;;;;;;;;;;;;1875665;28;7132;-63
2023/03/03 00:10:44;;;;;;;;;;;;;;;;;;1874624;28;8031;-63
2023/03/03 00:11:41;;;;;;;;;;;;;;;;;;1865087;29;7118;-64
2023/03/03 00:12:46;;;;;;;;;;;;;;;;;;1866328;29;7040;-63
2023/03/03 00:13:44;;;;;;;;;;;;;;;;;;1871671;28;7157;-64
2023/03/03 00:14:41;;;;;;;;;;;;;;;;;;1868314;29;7300;-64
2023/03/03 00:15:38;;;;;;;;;;;;;;;;;;1874168;28;7014;-64
2023/03/03 00:16:37;;;;;;;;;;;;;;;;;;1867935;28;9255;-64
2023/03/03 00:17:35;;;;;;;;;;;;;;;;;;1875559;28;7031;-64
2023/03/03 00:18:34;;;;;;;;;;;;;;;;;;1875170;28;7049;-64
2023/03/03 00:19:37;;;;;;;;;;;;;;;;;;1870489;28;8010;-64
2023/03/03 00:20:36;;;;;;;;;;;;;;;;;;1870994;28;7303;-63
2023/03/03 00:21:42;;;;;;;;;;;;;;;;;;1870299;28;7129;-64
2023/03/03 00:22:39;;;;;;;;;;;;;;;;;;1873311;28;7128;-64
2023/03/03 00:23:39;;;;;;;;;;;;;;;;;;1868671;28;7010;-65
2023/03/03 00:24:37;;;;;;;;;;;;;;;;;;1868132;28;8012;-64
2023/03/03 00:25:34;;;;;;;;;;;;;;;;;;1873464;28;7987;-64
2023/03/03 00:26:37;;;;;;;;;;;;;;;;;;1873503;28;8081;-63
2023/03/03 00:27:37;;;;;;;;;;;;;;;;;;1869330;28;7406;-64
2023/03/03 00:28:45;;;;;;;;;;;;;;;;;;1875515;28;7128;-64
2023/03/03 00:29:47;;;;;;;;;;;;;;;;;;1875383;28;7117;-64
2023/03/03 00:30:44;;;;;;;;;;;;;;;;;;1875008;28;7332;-64
2023/03/03 00:31:41;;;;;;;;;;;;;;;;;;1872309;28;7131;-64
2023/03/03 00:32:49;;;;;;;;;;;;;;;;;;1859716;29;7935;-64
2023/03/03 00:33:53;;;;;;;;;;;;;;;;;;1865463;29;7042;-64
2023/03/03 00:34:52;;;;;;;;;;;;;;;;;;1869684;28;7157;-64
2023/03/03 00:35:49;;;;;;;;;;;;;;;;;;1866145;29;7108;-64
2023/03/03 00:36:50;;;;;;;;;;;;;;;;;;1868813;28;7010;-64
2023/03/03 00:37:53;;;;;;;;;;;;;;;;;;1871206;28;7162;-64
2023/03/03 00:38:50;;;;;;;;;;;;;;;;;;1871693;28;7002;-63
2023/03/03 00:39:48;;;;;;;;;;;;;;;;;;1868158;29;7094;-64
2023/03/03 00:40:46;;;;;;;;;;;;;;;;;;1867407;29;7352;-64
2023/03/03 00:41:43;;;;;;;;;;;;;;;;;;1868136;28;7156;-64
2023/03/03 00:42:45;;;;;;;;;;;;;;;;;;1867790;29;7043;-63
2023/03/03 00:43:42;;;;;;;;;;;;;;;;;;1868182;29;7093;-64
2023/03/03 00:44:42;;;;;;;;;;;;;;;;;;1874791;28;7010;-63
2023/03/03 00:45:44;;;;;;;;;;;;;;;;;;1867690;29;7216;-64
2023/03/03 00:46:42;;;;;;;;;;;;;;;;;;1867378;28;7053;-65
2023/03/03 00:47:42;;;;;;;;;;;;;;;;;;1869796;28;7070;-64
2023/03/03 00:48:41;;;;;;;;;;;;;;;;;;1868211;29;7038;-64
2023/03/03 00:49:39;;;;;;;;;;;;;;;;;;1871845;28;7996;-63
2023/03/03 00:50:38;;;;;;;;;;;;;;;;;;1874460;28;8024;-64
2023/03/03 00:51:36;;;;;;;;;;;;;;;;;;1874227;28;8029;-65
2023/03/03 00:52:35;;;;;;;;;;;;;;;;;;1874121;28;7160;-64
2023/03/03 00:53:32;;;;;;;;;;;;;;;;;;1867182;29;8133;-64
2023/03/03 00:54:30;;;;;;;;;;;;;;;;;;1866698;28;7031;-63
2023/03/03 00:55:27;;;;;;;;;;;;;;;;;;1868141;28;7010;-63
2023/03/03 00:56:26;;;;;;;;;;;;;;;;;;1867884;29;7098;-64
2023/03/03 00:57:23;;;;;;;;;;;;;;;;;;1867645;29;7073;-64
2023/03/03 00:58:22;;;;;;;;;;;;;;;;;;1866935;29;7128;-64
2023/03/03 00:59:20;;;;;;;;;;;;;;;;;;1867393;29;8230;-65
2023/03/03 01:00:18;;;;;;;;;;;;;;;;;;1867580;28;7006;-64
2023/03/03 01:01:16;;;;;;;;;;;;;;;;;;1872087;28;8059;-64
2023/03/03 01:02:14;;;;;;;;;;;;;;;;;;1875126;28;7022;-64
2023/03/03 01:03:13;;;;;;;;;;;;;;;;;;1874748;28;8014;-64
2023/03/03 01:04:10;;;;;;;;;;;;;;;;;;1874965;28;7010;-64
2023/03/03 01:05:11;;;;;;;;;;;;;;;;;;1874145;28;7093;-64
2023/03/03 01:06:09;;;;;;;;;;;;;;;;;;1872491;28;7413;-64
2023/03/03 01:07:06;;;;;;;;;;;;;;;;;;1867590;29;7121;-64
2023/03/03 01:08:04;;;;;;;;;;;;;;;;;;1868328;28;8019;-64
2023/03/03 01:09:01;;;;;;;;;;;;;;;;;;1871126;28;7050;-64
2023/03/03 01:09:58;;;;;;;;;;;;;;;;;;1867887;29;7972;-64
2023/03/03 01:10:58;;;;;;;;;;;;;;;;;;1867923;29;7314;-64
2023/03/03 01:11:56;;;;;;;;;;;;;;;;;;1866474;29;7216;-64
2023/03/03 01:12:53;;;;;;;;;;;;;;;;;;1868003;29;8092;-64
2023/03/03 01:13:51;;;;;;;;;;;;;;;;;;1868702;29;8032;-65
2023/03/03 01:14:51;;;;;;;;;;;;;;;;;;1874651;28;8393;-64
2023/03/03 01:15:49;;;;;;;;;;;;;;;;;;1870712;28;7035;-65
2023/03/03 01:16:49;;;;;;;;;;;;;;;;;;1867952;28;8056;-66
2023/03/03 01:17:46;;;;;;;;;;;;;;;;;;1869414;28;7927;-66
2023/03/03 01:18:44;;;;;;;;;;;;;;;;;;1874753;28;7464;-64
2023/03/03 01:19:41;;;;;;;;;;;;;;;;;;1874330;28;7093;-64
2023/03/03 01:20:39;;;;;;;;;;;;;;;;;;1867594;28;7022;-64
2023/03/03 01:21:37;;;;;;;;;;;;;;;;;;1867601;29;7423;-64
2023/03/03 01:22:35;;;;;;;;;;;;;;;;;;1868682;28;7175;-64
2023/03/03 01:23:32;;;;;;;;;;;;;;;;;;1873222;28;7447;-65
2023/03/03 01:24:30;;;;;;;;;;;;;;;;;;1873361;28;8004;-63
2023/03/03 01:25:27;;;;;;;;;;;;;;;;;;1867559;29;7652;-64
2023/03/03 01:26:25;;;;;;;;;;;;;;;;;;1861242;29;7011;-64
2023/03/03 01:27:22;;;;;;;;;;;;;;;;;;1860279;29;7043;-64
2023/03/03 01:28:20;;;;;;;;;;;;;;;;;;1866406;29;8020;-64
2023/03/03 01:29:17;;;;;;;;;;;;;;;;;;1873559;28;7010;-63
2023/03/03 01:30:15;;;;;;;;;;;;;;;;;;1872470;28;7055;-64
2023/03/03 01:31:12;;;;;;;;;;;;;;;;;;1869833;28;7033;-64
2023/03/03 01:32:10;;;;;;;;;;;;;;;;;;1867984;29;7401;-64
2023/03/03 01:33:07;;;;;;;;;;;;;;;;;;1866406;29;7046;-64
2023/03/03 01:34:06;;;;;;;;;;;;;;;;;;1869347;28;7308;-64
2023/03/03 01:35:03;;;;;;;;;;;;;;;;;;1866836;29;7197;-64
2023/03/03 01:36:01;;;;;;;;;;;;;;;;;;1872565;28;7089;-64
2023/03/03 01:36:59;;;;;;;;;;;;;;;;;;1866546;29;7014;-63
2023/03/03 01:37:57;;;;;;;;;;;;;;;;;;1867010;29;7133;-64
2023/03/03 01:38:54;;;;;;;;;;;;;;;;;;1859806;29;7089;-65
2023/03/03 01:39:53;;;;;;;;;;;;;;;;;;1859103;29;8027;-64
2023/03/03 01:40:51;;;;;;;;;;;;;;;;;;1859123;29;8051;-64
2023/03/03 01:41:48;;;;;;;;;;;;;;;;;;1861907;29;8017;-66
2023/03/03 01:42:46;;;;;;;;;;;;;;;;;;1873473;28;7142;-66
2023/03/03 01:43:45;;;;;;;;;;;;;;;;;;1866617;29;7106;-66
2023/03/03 01:44:43;;;;;;;;;;;;;;;;;;1867676;29;7150;-64
2023/03/03 01:45:40;;;;;;;;;;;;;;;;;;1873529;28;7069;-63
2023/03/03 01:46:51;;;;;;;;;;;;;;;;;;1871338;28;7124;-63
2023/03/03 01:47:54;;;;;;;;;;;;;;;;;;1869992;28;7006;-64
2023/03/03 01:49:01;;;;;;;;;;;;;;;;;;1874856;28;7126;-63
2023/03/03 01:50:03;;;;;;;;;;;;;;;;;;1870636;28;7030;-63
2023/03/03 01:51:17;;;;;;;;;;;;;;;;;;1874482;28;7344;-64
2023/03/03 01:52:26;;;;;;;;;;;;;;;;;;1870270;28;7010;-66
2023/03/03 01:53:37;;;;;;;;;;;;;;;;;;1875129;28;8741;-65
2023/03/03 01:54:42;;;;;;;;;;;;;;;;;;1869834;29;7081;-65
2023/03/03 01:55:41;;;;;;;;;;;;;;;;;;1874758;28;7010;-65
2023/03/03 01:56:40;;;;;;;;;;;;;;;;;;1874272;28;7010;-66
2023/03/03 01:57:45;;;;;;;;;;;;;;;;;;1875236;28;7105;-65
2023/03/03 01:58:45;;;;;;;;;;;;;;;;;;1866754;29;8093;-65
2023/03/03 01:59:46;;;;;;;;;;;;;;;;;;1861062;29;8027;-65
2023/03/03 02:00:49;;;;;;;;;;;;;;;;;;1867719;29;7002;-64
2023/03/03 02:01:47;;;;;;;;;;;;;;;;;;1867846;29;7155;-65
2023/03/03 02:02:45;;;;;;;;;;;;;;;;;;1872185;28;7309;-64
2023/03/03 02:03:43;;;;;;;;;;;;;;;;;;1869639;28;7264;-63
2023/03/03 02:04:40;;;;;;;;;;;;;;;;;;1874787;28;7002;-64
2023/03/03 02:05:40;;;;;;;;;;;;;;;;;;1870398;28;7325;-64
2023/03/03 02:06:45;;;;;;;;;;;;;;;;;;1866699;29;7006;-63
2023/03/03 02:07:44;;;;;;;;;;;;;;;;;;1871513;28;7306;-63
2023/03/03 02:08:48;;;;;;;;;;;;;;;;;;1867346;29;7131;-64
2023/03/03 02:09:45;;;;;;;;;;;;;;;;;;1871540;28;7260;-63
2023/03/03 02:10:45;;;;;;;;;;;;;;;;;;1874359;28;7038;-63
2023/03/03 02:11:43;;;;;;;;;;;;;;;;;;1874450;28;7089;-64
2023/03/03 02:12:42;;;;;;;;;;;;;;;;;;1872952;28;7006;-63
2023/03/03 02:13:40;;;;;;;;;;;;;;;;;;1868826;28;7117;-64
2023/03/03 02:14:37;;;;;;;;;;;;;;;;;;1871005;29;7187;-63
2023/03/03 02:15:35;;;;;;;;;;;;;;;;;;1872656;29;7003;-63
2023/03/03 02:16:32;;;;;;;;;;;;;;;;;;1870676;29;7500;-63
2023/03/03 02:17:30;;;;;;;;;;;;;;;;;;1867292;29;7251;-63
2023/03/03 02:18:27;;;;;;;;;;;;;;;;;;1871528;29;7006;-63
2023/03/03 02:19:38;;;;;;;;;;;;;;;;;;1867419;29;7006;-63
2023/03/03 02:20:44;;;;;;;;;;;;;;;;;;1872544;29;7135;-63
2023/03/03 02:21:42;;;;;;;;;;;;;;;;;;1874547;29;8024;-63
2023/03/03 02:22:49;;;;;;;;;;;;;;;;;;1868756;29;8182;-63
2023/03/03 02:23:55;;;;;;;;;;;;;;;;;;1869122;29;8048;-63
2023/03/03 02:24:59;;;;;;;;;;;;;;;;;;1869437;29;7209;-63
2023/03/03 02:25:57;;;;;;;;;;;;;;;;;;1868226;29;7313;-64
2023/03/03 02:26:56;;;;;;;;;;;;;;;;;;1871547;29;8127;-63
2023/03/03 02:27:55;;;;;;;;;;;;;;;;;;1870890;29;8542;-64
2023/03/03 02:28:52;;;;;;;;;;;;;;;;;;1874016;29;8120;-63
2023/03/03 02:29:51;;;;;;;;;;;;;;;;;;1867367;29;8115;-63
2023/03/03 02:30:48;;;;;;;;;;;;;;;;;;1866310;29;7130;-63
2023/03/03 02:31:45;;;;;;;;;;;;;;;;;;1866358;29;7208;-63
2023/03/03 02:32:43;;;;;;;;;;;;;;;;;;1873946;29;7112;-63
2023/03/03 02:33:42;;;;;;;;;;;;;;;;;;1869813;29;7146;-63
2023/03/03 02:34:46;;;;;;;;;;;;;;;;;;1872020;29;7101;-63
2023/03/03 02:35:44;;;;;;;;;;;;;;;;;;1873514;29;8157;-64
2023/03/03 02:36:41;;;;;;;;;;;;;;;;;;1874440;29;7017;-64
2023/03/03 02:37:40;;;;;;;;;;;;;;;;;;1874509;29;8017;-63
2023/03/03 02:38:46;;;;;;;;;;;;;;;;;;1874114;29;7014;-64
2023/03/03 02:39:44;;;;;;;;;;;;;;;;;;1867665;29;7078;-63
2023/03/03 02:41:02;;;;;;;;;;;;;;;;;;1867057;29;7022;-63
2023/03/03 02:42:05;;;;;;;;;;;;;;;;;;1874782;29;7037;-64
2023/03/03 02:43:05;;;;;;;;;;;;;;;;;;1872690;29;8052;-63
2023/03/03 02:44:02;;;;;;;;;;;;;;;;;;1872480;29;7014;-63
2023/03/03 02:45:00;;;;;;;;;;;;;;;;;;1875208;29;7002;-64
2023/03/03 02:45:57;;;;;;;;;;;;;;;;;;1872608;29;7006;-64
2023/03/03 02:46:55;;;;;;;;;;;;;;;;;;1870734;29;7006;-65
2023/03/03 02:47:53;;;;;;;;;;;;;;;;;;1868406;29;7022;-65
2023/03/03 02:48:50;;;;;;;;;;;;;;;;;;1874021;29;7971;-65
2023/03/03 02:49:48;;;;;;;;;;;;;;;;;;1871423;29;7026;-63
2023/03/03 02:50:45;;;;;;;;;;;;;;;;;;1870127;29;7333;-65
2023/03/03 02:51:42;;;;;;;;;;;;;;;;;;1873351;29;7006;-65
2023/03/03 02:52:40;;;;;;;;;;;;;;;;;;1874068;29;7140;-65
2023/03/03 02:53:37;;;;;;;;;;;;;;;;;;1873793;29;7104;-65
2023/03/03 02:54:35;;;;;;;;;;;;;;;;;;1874474;29;7006;-65
2023/03/03 02:55:32;;;;;;;;;;;;;;;;;;1866503;29;7109;-64
2023/03/03 02:56:30;;;;;;;;;;;;;;;;;;1872235;29;7129;-65
2023/03/03 02:57:27;;;;;;;;;;;;;;;;;;1873050;29;8052;-65
2023/03/03 02:58:25;;;;;;;;;;;;;;;;;;1872379;29;7010;-65
2023/03/03 02:59:23;;;;;;;;;;;;;;;;;;1867084;29;7027;-65
2023/03/03 03:00:20;;;;;;;;;;;;;;;;;;1872051;29;8041;-65
2023/03/03 03:01:18;;;;;;;;;;;;;;;;;;1874303;29;7097;-65
2023/03/03 03:02:15;;;;;;;;;;;;;;;;;;1874351;29;8014;-65
2023/03/03 03:03:13;;;;;;;;;;;;;;;;;;1874137;28;7042;-64
2023/03/03 03:04:12;;;;;;;;;;;;;;;;;;1872175;28;7038;-65
2023/03/03 03:05:09;;;;;;;;;;;;;;;;;;1873409;28;8175;-65
2023/03/03 03:06:07;;;;;;;;;;;;;;;;;;1868978;28;7101;-65
2023/03/03 03:07:04;;;;;;;;;;;;;;;;;;1874672;28;7042;-65
2023/03/03 03:08:01;;;;;;;;;;;;;;;;;;1874950;28;7392;-65
2023/03/03 03:08:59;;;;;;;;;;;;;;;;;;1871256;28;7038;-66
2023/03/03 03:09:56;;;;;;;;;;;;;;;;;;1868465;28;8036;-65
2023/03/03 03:10:55;;;;;;;;;;;;;;;;;;1867684;29;8289;-65
2023/03/03 03:11:53;;;;;;;;;;;;;;;;;;1868057;29;7010;-65
2023/03/03 03:12:51;;;;;;;;;;;;;;;;;;1873283;28;7136;-65
2023/03/03 03:13:48;;;;;;;;;;;;;;;;;;1866593;29;7137;-64
2023/03/03 03:14:46;;;;;;;;;;;;;;;;;;1868164;29;7025;-65
2023/03/03 03:15:46;;;;;;;;;;;;;;;;;;1872525;28;8052;-65
2023/03/03 03:16:43;;;;;;;;;;;;;;;;;;1869254;28;7018;-64
2023/03/03 03:17:41;;;;;;;;;;;;;;;;;;1871958;28;7097;-65
2023/03/03 03:18:38;;;;;;;;;;;;;;;;;;1873119;28;7010;-65
2023/03/03 03:19:35;;;;;;;;;;;;;;;;;;1874945;28;7051;-64
2023/03/03 03:20:36;;;;;;;;;;;;;;;;;;1872974;28;8064;-65
2023/03/03 03:21:34;;;;;;;;;;;;;;;;;;1870740;28;8010;-65
2023/03/03 03:22:31;;;;;;;;;;;;;;;;;;1873425;28;7018;-65
2023/03/03 03:23:28;;;;;;;;;;;;;;;;;;1875684;28;8087;-65
2023/03/03 03:24:26;;;;;;;;;;;;;;;;;;1876041;28;8007;-64
2023/03/03 03:25:23;;;;;;;;;;;;;;;;;;1875965;28;7042;-64
2023/03/03 03:26:21;;;;;;;;;;;;;;;;;;1874263;28;8091;-65
2023/03/03 03:27:18;;;;;;;;;;;;;;;;;;1874460;28;7006;-64
2023/03/03 03:28:16;;;;;;;;;;;;;;;;;;1875686;28;7009;-65
2023/03/03 03:29:14;;;;;;;;;;;;;;;;;;1875295;28;7996;-65
2023/03/03 03:30:11;;;;;;;;;;;;;;;;;;1875320;28;7009;-65
2023/03/03 03:31:09;;;;;;;;;;;;;;;;;;1875751;28;7006;-65
2023/03/03 03:32:06;;;;;;;;;;;;;;;;;;1875766;28;7100;-64
2023/03/03 03:33:04;;;;;;;;;;;;;;;;;;1875493;28;7109;-64
2023/03/03 03:34:02;;;;;;;;;;;;;;;;;;1875876;28;8044;-66
2023/03/03 03:34:59;;;;;;;;;;;;;;;;;;1875481;28;7096;-65
2023/03/03 03:35:57;;;;;;;;;;;;;;;;;;1875430;28;7089;-65
2023/03/03 03:36:54;;;;;;;;;;;;;;;;;;1875472;28;7193;-64
2023/03/03 03:37:51;;;;;;;;;;;;;;;;;;1875214;28;7014;-65
2023/03/03 03:38:49;;;;;;;;;;;;;;;;;;1875763;28;7313;-64
2023/03/03 03:39:46;;;;;;;;;;;;;;;;;;1875607;28;7438;-65
2023/03/03 03:40:43;;;;;;;;;;;;;;;;;;1875719;28;7321;-65
2023/03/03 03:41:41;;;;;;;;;;;;;;;;;;1874356;28;7105;-65
2023/03/03 03:42:39;;;;;;;;;;;;;;;;;;1876332;28;7034;-65
2023/03/03 03:43:36;;;;;;;;;;;;;;;;;;1876042;28;7114;-65
2023/03/03 03:44:34;;;;;;;;;;;;;;;;;;1876055;28;7034;-64
2023/03/03 03:45:31;;;;;;;;;;;;;;;;;;1874380;28;7837;-65
2023/03/03 03:46:28;;;;;;;;;;;;;;;;;;1874486;28;7053;-65
2023/03/03 03:47:26;;;;;;;;;;;;;;;;;;1874456;28;9006;-66
2023/03/03 03:48:23;;;;;;;;;;;;;;;;;;1874011;28;7010;-65
2023/03/03 03:49:21;;;;;;;;;;;;;;;;;;1875347;28;7999;-64
2023/03/03 03:50:18;;;;;;;;;;;;;;;;;;1875552;28;7042;-65
2023/03/03 03:51:15;;;;;;;;;;;;;;;;;;1875315;28;7010;-64
2023/03/03 03:52:13;;;;;;;;;;;;;;;;;;1875302;28;7092;-65
2023/03/03 03:53:10;;;;;;;;;;;;;;;;;;1875528;28;7002;-64
2023/03/03 03:54:08;;;;;;;;;;;;;;;;;;1868072;29;7017;-65
2023/03/03 03:55:05;;;;;;;;;;;;;;;;;;1867292;29;7025;-64
2023/03/03 03:56:02;;;;;;;;;;;;;;;;;;1874287;28;7006;-65
2023/03/03 03:57:00;;;;;;;;;;;;;;;;;;1875218;28;7026;-65
2023/03/03 03:57:57;;;;;;;;;;;;;;;;;;1875314;28;7045;-65
2023/03/03 03:58:55;;;;;;;;;;;;;;;;;;1875850;28;8068;-64
2023/03/03 03:59:52;;;;;;;;;;;;;;;;;;1875887;28;8019;-64
2023/03/03 04:00:49;;;;;;;;;;;;;;;;;;1874958;28;7064;-64
2023/03/03 04:01:48;;;;;;;;;;;;;;;;;;1875104;28;7042;-65
2023/03/03 04:02:46;;;;;;;;;;;;;;;;;;1874820;28;7005;-65
2023/03/03 04:03:43;;;;;;;;;;;;;;;;;;1875205;28;7018;-65
2023/03/03 04:04:41;;;;;;;;;;;;;;;;;;1874381;28;7037;-65
2023/03/03 04:05:38;;;;;;;;;;;;;;;;;;1875307;28;8555;-65
2023/03/03 04:06:35;;;;;;;;;;;;;;;;;;1874179;28;7050;-65
2023/03/03 04:07:33;;;;;;;;;;;;;;;;;;1874650;28;7010;-65
2023/03/03 04:08:30;;;;;;;;;;;;;;;;;;1874948;28;8091;-65
2023/03/03 04:09:27;;;;;;;;;;;;;;;;;;1874882;28;7058;-66
2023/03/03 04:10:25;;;;;;;;;;;;;;;;;;1875201;28;7109;-65
2023/03/03 04:11:22;;;;;;;;;;;;;;;;;;1875602;28;8204;-65
2023/03/03 04:12:19;;;;;;;;;;;;;;;;;;1867834;29;8120;-65
2023/03/03 04:13:17;;;;;;;;;;;;;;;;;;1866985;29;7124;-65
2023/03/03 04:14:14;;;;;;;;;;;;;;;;;;1874338;28;7015;-65
2023/03/03 04:15:12;;;;;;;;;;;;;;;;;;1874456;28;8061;-64
2023/03/03 04:16:10;;;;;;;;;;;;;;;;;;1874822;28;7125;-65
2023/03/03 04:17:07;;;;;;;;;;;;;;;;;;1875101;28;7014;-64
2023/03/03 04:18:05;;;;;;;;;;;;;;;;;;1875028;28;7101;-65
2023/03/03 04:19:02;;;;;;;;;;;;;;;;;;1875197;28;7010;-65
2023/03/03 04:20:01;;;;;;;;;;;;;;;;;;1875072;28;8215;-65
2023/03/03 04:20:58;;;;;;;;;;;;;;;;;;1875384;28;7014;-65
2023/03/03 04:21:55;;;;;;;;;;;;;;;;;;1874993;28;8036;-65
2023/03/03 04:22:53;;;;;;;;;;;;;;;;;;1875110;28;7134;-64
2023/03/03 04:23:52;;;;;;;;;;;;;;;;;;1874908;28;8072;-65
2023/03/03 04:24:49;;;;;;;;;;;;;;;;;;1875148;28;7096;-65
2023/03/03 04:25:47;;;;;;;;;;;;;;;;;;1874380;28;7139;-65
2023/03/03 04:26:44;;;;;;;;;;;;;;;;;;1875251;28;7022;-65
2023/03/03 04:27:42;;;;;;;;;;;;;;;;;;1875835;28;7093;-65
2023/03/03 04:28:40;;;;;;;;;;;;;;;;;;1875496;28;8069;-65
2023/03/03 04:29:37;;;;;;;;;;;;;;;;;;1875082;28;8099;-65
2023/03/03 04:30:34;;;;;;;;;;;;;;;;;;1875090;28;7006;-65
2023/03/03 04:31:32;;;;;;;;;;;;;;;;;;1875103;28;7121;-66
2023/03/03 04:32:30;;;;;;;;;;;;;;;;;;1875364;28;7042;-65
2023/03/03 04:33:27;;;;;;;;;;;;;;;;;;1874973;28;7050;-64
2023/03/03 04:34:25;;;;;;;;;;;;;;;;;;1875776;28;7026;-64
2023/03/03 04:35:22;;;;;;;;;;;;;;;;;;1874655;28;7820;-65
2023/03/03 04:36:20;;;;;;;;;;;;;;;;;;1874970;28;7388;-65
2023/03/03 04:37:17;;;;;;;;;;;;;;;;;;1875096;28;7092;-65
2023/03/03 04:38:15;;;;;;;;;;;;;;;;;;1875204;28;7116;-65
2023/03/03 04:39:12;;;;;;;;;;;;;;;;;;1875209;28;9096;-65
2023/03/03 04:40:10;;;;;;;;;;;;;;;;;;1875026;28;7097;-65
2023/03/03 04:41:07;;;;;;;;;;;;;;;;;;1875231;28;7014;-65
2023/03/03 04:42:05;;;;;;;;;;;;;;;;;;1875500;28;8024;-65
2023/03/03 04:43:03;;;;;;;;;;;;;;;;;;1874976;28;7336;-65
2023/03/03 04:44:00;;;;;;;;;;;;;;;;;;1874273;28;7153;-65
2023/03/03 04:44:57;;;;;;;;;;;;;;;;;;1874904;28;7301;-65
2023/03/03 04:45:55;;;;;;;;;;;;;;;;;;1874986;28;7035;-65
2023/03/03 04:46:52;;;;;;;;;;;;;;;;;;1875077;28;7038;-65
2023/03/03 04:47:49;;;;;;;;;;;;;;;;;;1875478;28;8012;-64
2023/03/03 04:48:47;;;;;;;;;;;;;;;;;;1875017;28;7121;-65
2023/03/03 04:49:44;;;;;;;;;;;;;;;;;;1875331;28;8172;-65
2023/03/03 04:50:42;;;;;;;;;;;;;;;;;;1875135;28;7093;-65
2023/03/03 04:51:39;;;;;;;;;;;;;;;;;;1875355;28;8005;-64
2023/03/03 04:52:37;;;;;;;;;;;;;;;;;;1874835;28;7152;-65
2023/03/03 04:53:35;;;;;;;;;;;;;;;;;;1875371;28;7010;-66
2023/03/03 04:54:32;;;;;;;;;;;;;;;;;;1875036;28;8024;-65
2023/03/03 04:55:30;;;;;;;;;;;;;;;;;;1875378;28;7039;-65
2023/03/03 04:56:30;;;;;;;;;;;;;;;;;;1875151;28;7047;-65
2023/03/03 04:57:27;;;;;;;;;;;;;;;;;;1875127;28;7159;-64
2023/03/03 04:58:24;;;;;;;;;;;;;;;;;;1875139;28;7142;-65
2023/03/03 04:59:22;;;;;;;;;;;;;;;;;;1875365;28;7029;-65
2023/03/03 05:00:19;;;;;;;;;;;;;;;;;;1874654;28;7136;-65
2023/03/03 05:01:18;;;;;;;;;;;;;;;;;;1875202;28;8024;-65
2023/03/03 05:02:16;;;;;;;;;;;;;;;;;;1875175;28;7058;-65
2023/03/03 05:03:13;;;;;;;;;;;;;;;;;;1875262;28;8012;-66
2023/03/03 05:04:10;;;;;;;;;;;;;;;;;;1875265;28;7050;-64
2023/03/03 05:05:09;;;;;;;;;;;;;;;;;;1875335;28;7246;-65
2023/03/03 05:06:07;;;;;;;;;;;;;;;;;;1875141;28;7009;-66
2023/03/03 05:07:04;;;;;;;;;;;;;;;;;;1875209;28;7018;-65
2023/03/03 05:08:01;;;;;;;;;;;;;;;;;;1875596;28;8046;-65
2023/03/03 05:08:59;;;;;;;;;;;;;;;;;;1876002;28;8400;-65
2023/03/03 05:09:56;;;;;;;;;;;;;;;;;;1875941;28;7847;-65
2023/03/03 05:10:54;;;;;;;;;;;;;;;;;;1873923;28;7037;-65
2023/03/03 05:11:53;;;;;;;;;;;;;;;;;;1874110;28;7152;-65
2023/03/03 05:12:51;;;;;;;;;;;;;;;;;;1874800;28;7097;-65
2023/03/03 05:13:48;;;;;;;;;;;;;;;;;;1874105;28;7101;-65
2023/03/03 05:14:45;;;;;;;;;;;;;;;;;;1875029;28;8059;-66
2023/03/03 05:15:47;;;;;;;;;;;;;;;;;;1875433;28;8506;-66
2023/03/03 05:16:45;;;;;;;;;;;;;;;;;;1875424;28;7564;-66
2023/03/03 05:17:42;;;;;;;;;;;;;;;;;;1875106;28;7157;-65
2023/03/03 05:18:40;;;;;;;;;;;;;;;;;;1875020;28;8024;-65
2023/03/03 05:19:37;;;;;;;;;;;;;;;;;;1874905;28;7210;-65
2023/03/03 05:20:35;;;;;;;;;;;;;;;;;;1875035;28;7290;-65
2023/03/03 05:21:32;;;;;;;;;;;;;;;;;;1875679;28;7046;-64
2023/03/03 05:22:30;;;;;;;;;;;;;;;;;;1875174;28;8040;-65
2023/03/03 05:23:27;;;;;;;;;;;;;;;;;;1871121;28;7309;-65
2023/03/03 05:24:25;;;;;;;;;;;;;;;;;;1875120;28;8004;-65
2023/03/03 05:25:23;;;;;;;;;;;;;;;;;;1869953;28;7006;-65
2023/03/03 05:26:20;;;;;;;;;;;;;;;;;;1869735;28;7975;-66
2023/03/03 05:27:17;;;;;;;;;;;;;;;;;;1867202;29;7110;-65
2023/03/03 05:28:16;;;;;;;;;;;;;;;;;;1867549;29;7153;-64
2023/03/03 05:29:13;;;;;;;;;;;;;;;;;;1869607;28;7228;-65
2023/03/03 05:30:11;;;;;;;;;;;;;;;;;;1875447;28;7109;-66
2023/03/03 05:31:08;;;;;;;;;;;;;;;;;;1872319;28;8044;-65
2023/03/03 05:32:06;;;;;;;;;;;;;;;;;;1867626;29;7117;-65
2023/03/03 05:33:04;;;;;;;;;;;;;;;;;;1867819;28;7102;-64
2023/03/03 05:34:02;;;;;;;;;;;;;;;;;;1867610;29;7046;-65
2023/03/03 05:34:59;;;;;;;;;;;;;;;;;;1869119;28;7039;-65
2023/03/03 05:35:57;;;;;;;;;;;;;;;;;;1867346;29;7113;-65
2023/03/03 05:36:54;;;;;;;;;;;;;;;;;;1867480;29;7010;-65
2023/03/03 05:37:52;;;;;;;;;;;;;;;;;;1873233;28;7149;-65
2023/03/03 05:38:49;;;;;;;;;;;;;;;;;;1868040;29;7001;-66
2023/03/03 05:39:46;;;;;;;;;;;;;;;;;;1873652;28;7144;-65
2023/03/03 05:40:44;;;;;;;;;;;;;;;;;;1870659;28;7006;-66
2023/03/03 05:41:41;;;;;;;;;;;;;;;;;;1869096;28;7006;-65
2023/03/03 05:42:38;;;;;;;;;;;;;;;;;;1868442;28;7010;-65
2023/03/03 05:43:36;;;;;;;;;;;;;;;;;;1872121;28;8545;-65
2023/03/03 05:44:34;;;;;;;;;;;;;;;;;;1873840;28;7133;-65
2023/03/03 05:45:31;;;;;;;;;;;;;;;;;;1867992;29;8040;-64
2023/03/03 05:46:28;;;;;;;;;;;;;;;;;;1867320;29;7326;-65
2023/03/03 05:47:26;;;;;;;;;;;;;;;;;;1867644;28;8028;-65
2023/03/03 05:48:23;;;;;;;;;;;;;;;;;;1873420;28;7151;-65
2023/03/03 05:49:20;;;;;;;;;;;;;;;;;;1869925;28;7042;-65
2023/03/03 05:50:19;;;;;;;;;;;;;;;;;;1875090;28;7102;-64
2023/03/03 05:51:16;;;;;;;;;;;;;;;;;;1872376;28;7975;-66
2023/03/03 05:52:14;;;;;;;;;;;;;;;;;;1868941;28;7109;-65
2023/03/03 05:53:14;;;;;;;;;;;;;;;;;;1869409;28;7121;-65
2023/03/03 05:54:14;;;;;;;;;;;;;;;;;;1874793;28;7078;-66
2023/03/03 05:55:13;;;;;;;;;;;;;;;;;;1871083;28;7030;-66
2023/03/03 05:56:11;;;;;;;;;;;;;;;;;;1868393;28;7014;-64
2023/03/03 05:57:08;;;;;;;;;;;;;;;;;;1869592;28;7010;-65
2023/03/03 05:58:06;;;;;;;;;;;;;;;;;;1871752;28;9041;-65
2023/03/03 05:59:03;;;;;;;;;;;;;;;;;;1867453;29;7117;-65
2023/03/03 06:00:05;;;;;;;;;;;;;;;;;;1867675;29;8050;-65
2023/03/03 06:01:02;;;;;;;;;;;;;;;;;;1866614;29;7137;-65
2023/03/03 06:02:00;;;;;;;;;;;;;;;;;;1867178;29;8034;-64
2023/03/03 06:02:57;;;;;;;;;;;;;;;;;;1868044;29;7022;-65
2023/03/03 06:03:54;;;;;;;;;;;;;;;;;;1867774;29;7117;-65
2023/03/03 06:04:52;;;;;;;;;;;;;;;;;;1871837;28;7061;-65
2023/03/03 06:05:49;;;;;;;;;;;;;;;;;;1874761;28;7006;-65
2023/03/03 06:06:46;;;;;;;;;;;;;;;;;;1869403;28;7014;-65
2023/03/03 06:07:44;;;;;;;;;;;;;;;;;;1870823;28;7113;-64
2023/03/03 06:08:41;;;;;;;;;;;;;;;;;;1867629;29;7126;-66
2023/03/03 06:09:39;;;;;;;;;;;;;;;;;;1866745;29;7010;-65
2023/03/03 06:10:36;;;;;;;;;;;;;;;;;;1867859;29;7179;-65
2023/03/03 06:11:33;;;;;;;;;;;;;;;;;;1867701;29;7039;-66
2023/03/03 06:12:31;;;;;;;;;;;;;;;;;;1867847;29;8073;-65
2023/03/03 06:13:29;;;;;;;;;;;;;;;;;;1869555;28;8013;-65
2023/03/03 06:14:26;;;;;;;;;;;;;;;;;;1873428;28;7198;-65
2023/03/03 06:15:23;;;;;;;;;;;;;;;;;;1867236;29;7037;-65
2023/03/03 06:16:21;;;;;;;;;;;;;;;;;;1867775;29;9098;-65
2023/03/03 06:17:18;;;;;;;;;;;;;;;;;;1868289;29;7137;-65
2023/03/03 06:18:17;;;;;;;;;;;;;;;;;;1868081;29;7800;-65
2023/03/03 06:19:15;;;;;;;;;;;;;;;;;;1870815;29;7405;-65
2023/03/03 06:20:12;;;;;;;;;;;;;;;;;;1870926;29;8103;-65
2023/03/03 06:21:10;;;;;;;;;;;;;;;;;;1873020;29;7958;-65
2023/03/03 06:22:07;;;;;;;;;;;;;;;;;;1869932;29;7287;-65
2023/03/03 06:23:05;;;;;;;;;;;;;;;;;;1874909;29;7093;-65
2023/03/03 06:24:02;;;;;;;;;;;;;;;;;;1875102;29;8002;-66
2023/03/03 06:25:00;;;;;;;;;;;;;;;;;;1874613;29;8027;-66
2023/03/03 06:25:57;;;;;;;;;;;;;;;;;;1874779;29;7046;-65
2023/03/03 06:26:55;;;;;;;;;;;;;;;;;;1874484;29;7009;-65
2023/03/03 06:27:52;;;;;;;;;;;;;;;;;;1874252;29;7320;-65
2023/03/03 06:28:52;;;;;;;;;;;;;;;;;;1874939;29;7113;-65
2023/03/03 06:29:50;;;;;;;;;;;;;;;;;;1874804;29;7042;-65
2023/03/03 06:30:47;;;;;;;;;;;;;;;;;;1874830;29;7097;-65
2023/03/03 06:31:45;;;;;;;;;;;;;;;;;;1875303;29;8051;-66
2023/03/03 06:32:43;;;;;;;;;;;;;;;;;;1874778;29;7084;-65
2023/03/03 06:33:41;;;;;;;;;;;;;;;;;;1875042;29;7014;-66
2023/03/03 06:34:38;;;;;;;;;;;;;;;;;;1874648;29;7010;-65
2023/03/03 06:35:36;;;;;;;;;;;;;;;;;;1867078;29;8040;-65
2023/03/03 06:36:33;;;;;;;;;;;;;;;;;;1866806;29;7097;-65
2023/03/03 06:37:31;;;;;;;;;;;;;;;;;;1874018;29;7092;-65
2023/03/03 06:38:28;;;;;;;;;;;;;;;;;;1875091;28;7006;-65
2023/03/03 06:39:25;;;;;;;;;;;;;;;;;;1875886;28;7014;-65
2023/03/03 06:40:23;;;;;;;;;;;;;;;;;;1876278;28;7010;-65
2023/03/03 06:41:20;;;;;;;;;;;;;;;;;;1876016;28;7009;-65
2023/03/03 06:42:18;;;;;;;;;;;;;;;;;;1876135;28;7197;-65
2023/03/03 06:43:16;;;;;;;;;;;;;;;;;;1876557;28;8011;-65
2023/03/03 06:44:13;;;;;;;;;;;;;;;;;;1876915;28;7045;-65
2023/03/03 06:45:11;;;;;;;;;;;;;;;;;;1876316;28;7097;-66